Terminal Aerodrome Forecast
Issued by NWS

Home | Current Version | Previous Version | Text Only | Print | Product List | Glossary On
Versions: 1 2 3 4 5 6 7 8 9 10 11 12 13 14 15 16
000
FTUS44 KTSA 280520
TAFRVS
TAF
KRVS 280520Z 2806/2906 17005KT P6SM SCT150
     FM281500 18012G18KT P6SM SCT050 BKN250
     FM282300 18008KT P6SM VCTS BKN050CB PROB30 2900/2906 5SM -TSRA
      BKN040CB=

USA.gov is the U.S. government's official web portal to all federal, state and local government web resources and services.